Terminal Aerodrome Forecast
Issued by NWS King Salmon, AK

Home | Current Version | Previous Version | Text Only | Print | Product List | Glossary On
Versions: 1 2 3 4 5 6 7 8 9 10 11 12 13 14 15 16 17 18 19 20 21 22 23 24 25 26 27 28 29 30 31 32 33 34 35 36 37 38 39 40 41 42 43 44 45 46
000
FTAK31 PANC 011135
TAFAKN
TAF
PAKN 011135Z 0112/0212 34008KT P6SM FEW004 BKN100
     FM011300 36004KT P6SM VCFG FEW004 SCT100
     FM011800 34008KT P6SM SCT040 SCT100
     FM012200 33009G15KT P6SM SCT040 SCT100
     FM020500 36005KT P6SM FEW040 SCT100=

USA.gov is the U.S. government's official web portal to all federal, state and local government web resources and services.